Last 7 Days

Scotts Valley

Hourly Data | America/Los_Angeles
as of 7/15/24 4:34 PM PDT
Date & Time Temp (°F) RH (%) Dew Pt (°F) Wind Dir (°) Wind Spd (mph) Wind Gust (mph) Heat Index (°F) Leaf Wet (mins) BatVolt (V) Latest Rain (In) Daily Rain (In) Daily Min Temp (°F) Daily Max Temp (°F) Daily Max Wind (mph) Daily Leaf Wet (Hrs)
7/15/24 - 1600 95.8 21 49.9 SSW | 206 4.3 13.0 - 0.0 12.9 0.00 0.00 53.8 98.8 13.0 0.0
7/15/24 - 1500 97.9 24 55.3 SSE | 167 4.0 10.8 - 0.0 12.9 0.00 0.00 53.8 98.8 10.8 0.0
7/15/24 - 1400 95.6 27 56.1 SE | 124 3.1 9.3 - 0.0 13.0 0.00 0.00 53.8 97.7 9.5 0.0
7/15/24 - 1300 93.4 30 57.2 SE | 144 3.2 9.5 - 0.0 13.0 0.00 0.00 53.8 94.2 9.5 0.0
7/15/24 - 1200 90.8 28 53.4 SE | 124 2.1 7.9 - 0.0 13.0 0.00 0.00 53.8 92.8 7.9 0.0
7/15/24 - 1100 86.0 39 57.9 SSE | 159 2.1 5.2 - 0.0 13.0 0.00 0.00 53.8 88.0 5.2 0.0
7/15/24 - 1000 81.9 43 57.3 SSE | 157 1.3 4.3 - 0.0 13.1 0.00 0.00 53.8 84.3 4.3 0.0
7/15/24 - 0900 75.5 48 54.6 ENE | 72 0.5 2.5 - 0.0 13.2 0.00 0.00 53.8 79.5 2.5 0.0
7/15/24 - 0800 64.6 71 54.8 NE | 35 0.2 2.3 - 0.0 12.9 0.00 0.00 53.8 70.9 2.3 0.0
7/15/24 - 0700 54.4 90 51.4 SW | 235 0.1 1.3 - 0.0 12.6 0.00 0.00 53.8 60.9 1.9 0.0
7/15/24 - 0600 54.7 89 51.4 SW | 236 0.2 1.5 - 0.0 12.6 0.00 0.00 54.1 60.9 1.9 0.0
7/15/24 - 0500 55.8 87 52.1 SW | 232 0.2 1.4 - 0.0 12.6 0.00 0.00 55.1 60.9 1.9 0.0
7/15/24 - 0400 57.0 86 52.8 SSW | 199 0.1 1.4 - 0.0 12.6 0.00 0.00 56.5 60.9 1.9 0.0
7/15/24 - 0300 58.4 83 53.3 S | 186 0.2 1.9 - 0.0 12.6 0.00 0.00 57.5 60.9 1.9 0.0
7/15/24 - 0200 59.9 81 54.1 SSW | 196 0.2 1.4 - 0.0 12.6 0.00 0.00 58.8 60.9 1.4 0.0
7/15/24 - 0100 62.1 77 54.8 SW | 225 0.2 1.3 - 0.0 12.6 0.00 0.00 60.9 100.8 9.8 0.0
7/15/24 - 0000 65.4 71 55.7 S | 174 0.1 3.1 - 0.0 12.7 0.00 0.00 61.1 100.8 9.8 0.0
7/14/24 - 2300 70.4 61 56.2 SSE | 163 0.4 2.8 - 0.0 12.7 0.00 0.00 61.1 100.8 9.8 0.0
7/14/24 - 2200 77.0 50 56.8 WSW | 242 1.0 5.9 - 0.0 12.7 0.00 0.00 61.1 100.8 9.8 0.0
7/14/24 - 2100 80.3 45 57.2 SW | 225 1.0 7.0 - 0.0 12.7 0.00 0.00 61.1 100.8 9.8 0.0
7/14/24 - 2000 88.8 35 57.1 SSE | 165 1.4 4.3 - 0.0 12.9 0.00 0.00 61.1 100.8 9.8 0.0
7/14/24 - 1900 94.5 20 46.9 SSW | 211 2.3 7.0 - 0.0 13.0 0.00 0.00 61.1 100.8 9.8 0.0
7/14/24 - 1800 96.5 17 44.5 SW | 224 3.3 9.0 - 0.0 12.9 0.00 0.00 61.1 100.8 9.8 0.0
7/14/24 - 1700 98.8 16 44.9 SSW | 204 3.5 9.1 - 0.0 12.9 0.00 0.00 61.1 100.8 9.8 0.0
7/14/24 - 1600 99.8 18 48.4 SSW | 198 3.3 9.8 - 0.0 12.9 0.00 0.00 61.1 100.8 9.8 0.0
7/14/24 - 1500 99.5 23 55.6 S | 170 2.7 8.0 - 0.0 12.9 0.00 0.00 61.1 100.5 9.5 0.0
7/14/24 - 1400 95.6 30 59.2 ESE | 117 2.9 7.9 - 0.0 13.0 0.00 0.00 61.1 98.3 9.5 0.0
7/14/24 - 1300 93.4 34 60.6 ESE | 114 3.3 9.5 - 0.0 13.0 0.00 0.00 61.1 95.0 9.5 0.0
7/14/24 - 1200 90.7 34 58.8 SE | 138 3.0 7.7 - 0.0 13.0 0.00 0.00 61.1 93.3 7.7 0.0
7/14/24 - 1100 88.2 37 58.7 ESE | 104 2.4 6.8 - 0.0 13.0 0.00 0.00 61.1 89.7 6.8 0.0
7/14/24 - 1000 85.1 38 56.7 ESE | 104 2.4 6.0 - 0.0 13.1 0.00 0.00 61.1 85.9 6.0 0.0
7/14/24 - 0900 80.0 48 58.6 E | 101 0.9 4.1 - 0.0 13.2 0.00 0.00 61.1 84.2 4.1 0.0
7/14/24 - 0800 67.9 70 57.4 NW | 307 0.4 3.3 - 0.0 13.2 0.00 0.00 61.1 75.8 3.3 0.0
7/14/24 - 0700 61.6 81 55.7 SW | 231 0.2 1.8 - 0.0 12.6 0.00 0.00 61.1 65.9 2.5 0.0
7/14/24 - 0600 64.3 77 56.9 S | 190 0.4 2.5 - 0.0 12.6 0.00 0.00 62.1 65.9 2.5 0.0
7/14/24 - 0500 63.8 80 57.4 SSE | 154 0.3 2.0 - 0.0 12.6 0.00 0.00 62.1 65.9 2.1 0.0
7/14/24 - 0400 62.6 80 56.4 SSW | 193 0.4 2.1 - 0.0 12.6 0.00 0.00 62.1 65.9 2.1 0.0
7/14/24 - 0300 63.3 80 56.9 SE | 135 0.1 1.8 - 0.0 12.6 0.00 0.00 62.9 65.9 1.8 0.0
7/14/24 - 0200 64.7 77 57.4 NW | 319 0.3 1.6 - 0.0 12.6 0.00 0.00 63.9 65.9 1.6 0.0
7/14/24 - 0100 68.0 71 58.2 S | 177 0.3 3.3 - 0.0 12.6 0.00 0.00 52.9 107.8 11.3 0.0
7/14/24 - 0000 71.2 66 59.4 SSE | 159 0.4 2.6 - 0.0 12.7 0.00 0.00 52.9 107.8 11.3 0.0
7/13/24 - 2300 74.0 61 59.7 SSW | 212 0.6 3.9 - 0.0 12.7 0.00 0.00 52.9 107.8 11.3 0.0
7/13/24 - 2200 77.4 56 60.3 ESE | 114 0.7 3.6 - 0.0 12.7 0.00 0.00 52.9 107.8 11.3 0.0
7/13/24 - 2100 82.6 46 60.0 NNW | 346 0.6 5.9 - 0.0 12.8 0.00 0.00 52.9 107.8 11.3 0.0
7/13/24 - 2000 89.1 38 59.9 SSW | 211 2.6 11.3 - 0.0 12.9 0.00 0.00 52.9 107.8 11.3 0.0
7/13/24 - 1900 96.4 32 61.4 WSW | 251 3.5 11.1 - 0.0 13.0 0.00 0.00 52.9 107.8 11.1 0.0
7/13/24 - 1800 98.4 28 59.4 SW | 223 2.8 7.2 - 0.0 12.9 0.00 0.00 52.9 107.8 11.0 0.0
7/13/24 - 1700 95.9 31 60.4 SSW | 195 1.5 5.0 - 0.0 13.0 0.00 0.00 52.9 107.8 11.0 0.0
7/13/24 - 1600 98.3 26 57.6 SW | 218 4.0 11.0 - 0.0 13.0 0.00 0.00 52.9 107.8 11.0 0.0
7/13/24 - 1500 104.5 19 54.0 SSE | 165 2.0 6.1 - 0.0 12.9 0.00 0.00 52.9 107.8 8.0 0.0
7/13/24 - 1400 101.6 23 56.6 SE | 138 2.6 6.8 - 0.0 12.9 0.00 0.00 52.9 103.0 8.0 0.0
7/13/24 - 1300 98.6 27 58.8 SE | 141 2.5 6.6 - 0.0 13.0 0.00 0.00 52.9 100.1 8.0 0.0
7/13/24 - 1200 94.1 30 58.0 ESE | 121 2.5 6.8 - 0.0 13.0 0.00 0.00 52.9 96.9 8.0 0.0
7/13/24 - 1100 90.6 37 60.7 ESE | 122 2.1 8.0 - 0.0 13.0 0.00 0.00 52.9 92.8 8.0 0.0
7/13/24 - 1000 81.3 46 58.4 SSE | 161 1.2 3.4 - 0.0 13.1 0.00 0.00 52.9 88.5 3.4 0.0
7/13/24 - 0900 70.3 63 56.8 SSE | 148 0.5 2.5 - 0.0 13.3 0.00 0.00 52.9 78.9 2.5 0.0
7/13/24 - 0800 64.0 70 53.9 SSW | 208 0.1 1.5 - 0.0 12.8 0.00 0.00 52.9 66.8 1.5 0.0
7/13/24 - 0700 53.8 88 50.3 E | 82 0.1 1.0 - 0.0 12.7 0.00 0.00 52.9 60.9 1.4 0.0
7/13/24 - 0600 53.7 85 49.3 E | 83 0.2 1.4 - 0.0 12.6 0.00 0.00 53.0 60.9 1.4 0.0
7/13/24 - 0500 55.0 84 50.1 N | 0 0.0 0.0 - 0.0 12.6 0.00 0.00 54.3 60.9 1.0 0.0
7/13/24 - 0400 56.1 82 50.6 E | 83 0.0 0.8 - 0.0 12.6 0.00 0.00 55.4 60.9 1.0 0.0
7/13/24 - 0300 57.9 80 51.8 ENE | 68 0.1 1.0 - 0.0 12.6 0.00 0.00 56.9 60.9 1.0 0.0
7/13/24 - 0200 59.8 77 52.6 SE | 141 0.0 1.0 - 0.0 12.6 0.00 0.00 58.7 60.9 1.0 0.0
7/13/24 - 0100 62.1 74 53.6 ENE | 69 0.2 2.5 - 0.0 12.6 0.00 0.00 50.9 108.1 11.5 0.0
7/13/24 - 0000 65.0 69 54.7 NNE | 22 0.1 1.3 - 0.0 12.6 0.00 0.00 50.9 108.1 11.5 0.0
7/12/24 - 2300 68.4 63 55.5 NNE | 22 0.2 1.5 - 0.0 12.7 0.00 0.00 50.9 108.1 11.5 0.0
7/12/24 - 2200 73.4 58 57.7 WNW | 302 0.2 1.5 - 0.0 12.7 0.00 0.00 50.9 108.1 11.5 0.0
7/12/24 - 2100 83.5 46 60.2 SSW | 203 0.5 2.3 - 0.0 12.7 0.00 0.00 50.9 108.1 11.5 0.0
7/12/24 - 2000 95.4 27 55.4 WSW | 239 2.0 7.9 - 0.0 12.8 0.00 0.00 50.9 108.1 11.5 0.0
7/12/24 - 1900 100.1 24 56.9 SW | 234 3.7 11.5 - 0.0 12.9 0.00 0.00 50.9 108.1 11.5 0.0
7/12/24 - 1800 104.9 18 52.4 SSW | 202 3.0 11.1 - 0.0 12.9 0.00 0.00 50.9 108.1 11.1 0.0
7/12/24 - 1700 105.3 16 49.5 SW | 224 3.5 10.0 - 0.0 12.9 0.00 0.00 50.9 108.1 10.0 0.0
7/12/24 - 1600 106.6 17 51.9 SW | 214 3.2 9.1 - 0.0 12.9 0.00 0.00 50.9 108.1 9.1 0.0
7/12/24 - 1500 106.6 17 52.3 S | 175 2.5 7.1 - 0.0 12.9 0.00 0.00 50.9 107.9 7.1 0.0
7/12/24 - 1400 104.1 18 52.4 SE | 125 2.5 6.2 - 0.0 12.9 0.00 0.00 50.9 105.7 6.2 0.0
7/12/24 - 1300 101.3 20 52.7 ESE | 120 2.2 6.1 - 0.0 13.0 0.00 0.00 50.9 103.5 6.1 0.0
7/12/24 - 1200 96.7 24 54.3 SE | 137 1.7 4.5 - 0.0 12.9 0.00 0.00 50.9 99.9 5.4 0.0
7/12/24 - 1100 91.4 34 59.0 E | 88 2.1 5.4 - 0.0 13.0 0.00 0.00 50.9 93.1 5.4 0.0
7/12/24 - 1000 83.9 39 56.1 S | 180 0.8 3.0 - 0.0 13.1 0.00 0.00 50.9 88.8 3.2 0.0
7/12/24 - 0900 76.7 48 55.5 SSE | 148 0.7 3.2 - 0.0 13.2 0.00 0.00 50.9 80.3 3.2 0.0
7/12/24 - 0800 63.6 68 52.4 ENE | 69 0.1 1.6 - 0.0 12.9 0.00 0.00 50.9 70.0 1.6 0.0
7/12/24 - 0700 51.6 86 47.7 SE | 141 0.0 0.7 - 0.0 12.6 0.00 0.00 50.9 58.4 1.2 0.0
7/12/24 - 0600 51.6 84 46.8 SE | 141 0.1 1.1 - 0.0 12.6 0.00 0.00 51.1 58.4 1.2 0.0
7/12/24 - 0500 52.8 80 46.8 SE | 141 0.0 0.8 - 0.0 12.6 0.00 0.00 52.2 58.4 1.2 0.0
7/12/24 - 0400 54.2 81 48.6 S | 180 0.1 1.0 - 0.0 12.6 0.00 0.00 53.4 58.4 1.2 0.0
7/12/24 - 0300 55.6 79 49.3 SSW | 211 0.0 1.1 - 0.0 12.6 0.00 0.00 54.8 58.4 1.2 0.0
7/12/24 - 0200 57.6 77 50.5 SE | 144 0.0 1.2 - 0.0 12.6 0.00 0.00 56.5 58.4 1.2 0.0
7/12/24 - 0100 59.8 74 51.4 SE | 146 0.0 0.1 - 0.0 12.6 0.00 0.00 55.2 108.3 12.8 0.0
7/12/24 - 0000 62.4 69 52.2 SW | 234 0.2 1.3 - 0.0 12.6 0.00 0.00 55.2 108.3 12.8 0.0
7/11/24 - 2300 66.2 64 53.5 SW | 227 0.1 1.2 - 0.0 12.7 0.00 0.00 55.2 108.3 12.8 0.0
7/11/24 - 2200 72.0 57 56.0 WSW | 257 0.4 1.8 - 0.0 12.7 0.00 0.00 55.2 108.3 12.8 0.0
7/11/24 - 2100 82.6 45 58.8 E | 101 0.2 2.1 - 0.0 12.7 0.00 0.00 55.2 108.3 12.8 0.0
7/11/24 - 2000 95.0 24 51.9 W | 260 1.4 9.1 - 0.0 12.8 0.00 0.00 55.2 108.3 12.8 0.0
7/11/24 - 1900 99.7 20 51.9 WSW | 244 3.7 11.2 - 0.0 12.9 0.00 0.00 55.2 108.3 12.8 0.0
7/11/24 - 1800 102.2 22 56.6 SW | 230 4.1 11.1 - 0.0 12.9 0.00 0.00 55.2 108.3 12.8 0.0
7/11/24 - 1700 105.5 17 51.4 SW | 215 3.5 10.5 - 0.0 12.9 0.00 0.00 55.2 108.3 12.8 0.0
7/11/24 - 1600 105.7 14 46.8 SW | 218 3.3 12.8 - 0.0 12.8 0.00 0.00 55.2 107.7 12.8 0.0
7/11/24 - 1500 105.5 18 53.0 SE | 146 3.0 9.9 - 0.0 12.9 0.00 0.00 55.2 107.7 9.9 0.0
7/11/24 - 1400 102.4 20 52.9 ESE | 102 2.8 7.2 - 0.0 12.9 0.00 0.00 55.2 104.0 7.2 0.0
7/11/24 - 1300 99.7 26 58.8 ESE | 105 2.7 6.9 - 0.0 13.0 0.00 0.00 55.2 101.5 6.9 0.0
7/11/24 - 1200 96.8 32 61.8 ESE | 113 2.1 5.3 97.9 0.0 12.9 0.00 0.00 55.2 98.8 5.3 0.0
7/11/24 - 1100 91.8 36 60.6 SE | 131 1.2 4.2 - 0.0 13.0 0.00 0.00 55.2 95.0 4.2 0.0
7/11/24 - 1000 87.5 44 62.7 ESE | 117 0.5 3.3 - 0.0 13.0 0.00 0.00 55.2 89.7 3.3 0.0
7/11/24 - 0900 79.7 54 61.6 ESE | 106 0.7 3.2 - 0.0 13.2 0.00 0.00 55.2 84.8 3.2 0.0
7/11/24 - 0800 66.1 75 57.8 S | 181 0.0 0.9 - 0.0 12.9 0.00 0.00 55.2 73.2 1.9 0.0
7/11/24 - 0700 56.0 92 53.6 SSE | 166 0.0 0.3 - 0.0 12.6 0.00 0.00 55.2 62.7 1.9 0.0
7/11/24 - 0600 55.6 90 52.8 SE | 145 0.1 1.9 - 0.0 12.6 0.00 0.00 55.2 62.7 1.9 0.0
7/11/24 - 0500 56.6 89 53.5 SSE | 155 0.1 0.9 - 0.0 12.6 0.00 0.00 56.3 62.7 1.9 0.0
7/11/24 - 0400 58.0 86 54.0 SSW | 210 0.1 0.9 - 0.0 12.6 0.00 0.00 57.2 62.7 1.9 0.0
7/11/24 - 0300 59.9 83 54.8 SSW | 213 0.1 1.2 - 0.0 12.6 0.00 0.00 58.8 62.7 1.9 0.0
7/11/24 - 0200 62.0 79 55.4 S | 169 0.3 1.9 - 0.0 12.6 0.00 0.00 61.0 62.7 1.9 0.0
7/11/24 - 0100 63.8 75 55.8 SE | 135 0.1 1.4 - 0.0 12.6 0.00 0.00 55.5 108.5 12.5 0.0
7/11/24 - 0000 66.3 70 56.2 NE | 37 0.2 1.4 - 0.0 12.6 0.00 0.00 55.5 108.5 12.5 0.0
7/10/24 - 2300 70.1 61 56.2 NE | 48 0.1 1.2 - 0.0 12.7 0.00 0.00 55.5 108.5 12.5 0.0
7/10/24 - 2200 75.3 53 57.0 NE | 48 0.3 2.3 - 0.0 12.7 0.00 0.00 55.5 108.5 12.5 0.0
7/10/24 - 2100 85.4 38 56.3 WSW | 249 0.7 4.2 - 0.0 12.7 0.00 0.00 55.5 108.5 12.5 0.0
7/10/24 - 2000 94.4 25 52.8 WSW | 245 2.7 7.2 - 0.0 12.8 0.00 0.00 55.5 108.5 12.5 0.0
7/10/24 - 1900 99.3 25 57.3 W | 274 2.3 10.7 - 0.0 12.9 0.00 0.00 55.5 108.5 12.5 0.0
7/10/24 - 1800 101.5 26 60.0 WSW | 255 3.8 12.5 - 0.0 12.9 0.00 0.00 55.5 108.5 12.5 0.0
7/10/24 - 1700 103.1 25 60.2 SW | 226 4.4 12.3 104.4 0.0 12.9 0.00 0.00 55.5 108.5 12.3 0.0
7/10/24 - 1600 106.8 18 54.4 SSE | 163 2.8 12.1 - 0.0 12.8 0.00 0.00 55.5 108.5 12.1 0.0
7/10/24 - 1500 106.2 17 52.6 SSE | 153 2.4 6.7 - 0.0 12.9 0.00 0.00 55.5 108.1 7.1 0.0
7/10/24 - 1400 101.4 22 55.7 SE | 144 2.3 5.9 - 0.0 12.9 0.00 0.00 55.5 103.5 7.1 0.0
7/10/24 - 1300 98.2 30 61.0 SE | 131 2.7 6.0 - 0.0 13.0 0.00 0.00 55.5 99.6 7.1 0.0
7/10/24 - 1200 94.1 35 62.6 ESE | 112 2.8 7.1 95.2 0.0 13.0 0.00 0.00 55.5 96.8 7.1 0.0
7/10/24 - 1100 90.6 42 64.3 ESE | 117 2.1 5.9 92.3 0.0 13.0 0.00 0.00 55.5 93.2 5.9 0.0
7/10/24 - 1000 86.5 48 64.2 E | 97 1.5 4.3 87.9 0.0 13.0 0.00 0.00 55.5 89.0 4.3 0.0
7/10/24 - 0900 79.6 54 61.5 E | 92 0.4 2.2 - 0.0 13.1 0.00 0.00 55.5 83.7 2.2 0.0
7/10/24 - 0800 67.4 74 58.5 ESE | 115 0.1 1.1 - 0.0 12.9 0.00 0.00 55.5 74.2 1.5 0.0
7/10/24 - 0700 56.4 92 54.2 N | 0 0.0 0.0 - 0.0 12.6 0.00 0.00 55.5 62.8 1.5 0.0
7/10/24 - 0600 55.9 91 53.2 SW | 232 0.0 0.8 - 0.0 12.6 0.00 0.00 55.5 62.8 1.5 0.0
7/10/24 - 0500 57.0 90 54.1 SW | 232 0.0 0.9 - 0.0 12.6 0.00 0.00 56.5 62.8 1.5 0.0
7/10/24 - 0400 58.0 89 54.9 SW | 231 0.0 0.8 - 0.0 12.6 0.00 0.00 57.5 62.8 1.5 0.0
7/10/24 - 0300 59.3 87 55.5 SW | 232 0.0 1.0 - 0.0 12.6 0.00 0.00 58.6 62.8 1.5 0.0
7/10/24 - 0200 61.3 84 56.4 S | 181 0.1 1.5 - 0.0 12.6 0.00 0.00 60.0 62.8 1.5 0.0
7/10/24 - 0100 64.1 81 58.1 N | 0 0.0 0.0 - 0.0 12.6 0.00 0.00 52.0 104.0 10.1 0.0
7/10/24 - 0000 67.3 76 59.3 E | 88 0.1 1.1 - 0.0 12.6 0.00 0.00 52.0 104.0 10.1 0.0
7/9/24 - 2300 72.5 66 60.3 E | 88 0.1 1.2 - 0.0 12.7 0.00 0.00 52.0 104.0 10.1 0.0
7/9/24 - 2200 80.9 52 61.7 SW | 236 0.8 4.2 81.9 0.0 12.7 0.00 0.00 52.0 104.0 10.1 0.0
7/9/24 - 2100 86.9 44 62.2 W | 274 1.1 5.7 - 0.0 12.8 0.00 0.00 52.0 104.0 10.1 0.0
7/9/24 - 2000 92.5 36 61.5 W | 269 2.2 9.3 - 0.0 12.9 0.00 0.00 52.0 104.0 10.1 0.0
7/9/24 - 1900 96.5 32 62.1 WSW | 251 3.5 10.1 97.7 0.0 13.0 0.00 0.00 52.0 104.0 10.1 0.0
7/9/24 - 1800 100.2 25 58.0 WSW | 248 3.4 9.3 - 0.0 12.9 0.00 0.00 52.0 104.0 9.9 0.0
7/9/24 - 1700 102.0 20 53.2 SW | 227 3.5 8.2 - 0.0 12.9 0.00 0.00 52.0 104.0 9.9 0.0
7/9/24 - 1600 102.0 20 53.2 SSW | 213 3.8 9.9 - 0.0 12.9 0.00 0.00 52.0 104.0 9.9 0.0
7/9/24 - 1500 102.9 21 56.0 SSE | 162 3.0 8.6 - 0.0 12.9 0.00 0.00 52.0 104.0 8.6 0.0
7/9/24 - 1400 99.6 23 54.8 ESE | 122 2.3 5.8 - 0.0 12.9 0.00 0.00 52.0 102.5 7.5 0.0
7/9/24 - 1300 96.3 28 58.1 SE | 139 2.9 7.0 - 0.0 13.0 0.00 0.00 52.0 97.7 7.5 0.0
7/9/24 - 1200 92.7 32 58.1 SSE | 152 2.3 7.5 - 0.0 13.0 0.00 0.00 52.0 94.3 7.5 0.0
7/9/24 - 1100 88.6 35 57.3 SSE | 158 1.6 4.5 - 0.0 13.0 0.00 0.00 52.0 90.2 4.6 0.0
7/9/24 - 1000 83.9 40 57.0 SE | 138 1.2 4.6 - 0.0 13.1 0.00 0.00 52.0 87.5 4.6 0.0
7/9/24 - 0900 76.7 49 56.3 SE | 124 0.7 2.8 - 0.0 13.2 0.00 0.00 52.0 81.7 2.8 0.0
7/9/24 - 0800 64.7 63 51.8 SSW | 202 0.0 1.2 - 0.0 12.9 0.00 0.00 52.0 70.7 2.0 0.0
7/9/24 - 0700 52.9 83 47.9 SW | 231 0.0 1.1 - 0.0 12.6 0.00 0.00 52.0 58.7 2.0 0.0
7/9/24 - 0600 53.0 79 46.6 SW | 231 0.0 0.7 - 0.0 12.6 0.00 0.00 52.2 58.7 2.0 0.0
7/9/24 - 0500 54.4 77 47.5 SW | 233 0.2 1.8 - 0.0 12.6 0.00 0.00 53.8 58.7 2.0 0.0
7/9/24 - 0400 55.6 76 48.1 SW | 231 0.4 2.0 - 0.0 12.6 0.00 0.00 54.9 58.7 2.0 0.0
7/9/24 - 0300 56.4 70 47.0 S | 171 0.6 2.0 - 0.0 12.6 0.00 0.00 55.9 58.7 2.0 0.0
7/9/24 - 0200 58.0 69 47.8 SSW | 197 0.2 1.6 - 0.0 12.6 0.00 0.00 57.1 58.7 1.6 0.0
7/9/24 - 0100 59.9 63 47.4 SSW | 198 0.1 1.6 - 0.0 12.6 0.00 0.00 53.2 109.3 16.2 0.0
7/9/24 - 0000 62.4 56 46.6 SE | 138 0.1 1.1 - 0.0 12.6 0.00 0.00 53.2 109.3 16.2 0.0
7/8/24 - 2300 66.2 50 46.9 SSE | 160 0.1 1.1 - 0.0 12.7 0.00 0.00 53.2 109.3 16.2 0.0
7/8/24 - 2200 72.8 40 46.7 E | 87 0.2 2.8 - 0.0 12.7 0.00 0.00 53.2 109.3 16.2 0.0
7/8/24 - 2100 84.0 25 43.9 SW | 226 1.1 5.4 - 0.0 12.7 0.00 0.00 53.2 109.3 16.2 0.0
7/8/24 - 2000 91.6 18 42.0 WSW | 243 3.0 10.6 - 0.0 12.8 0.00 0.00 53.2 109.3 16.2 0.0
7/8/24 - 1900 97.1 15 41.3 W | 267 4.0 13.3 - 0.0 13.0 0.00 0.00 53.2 109.3 16.2 0.0
7/8/24 - 1800 100.6 19 50.4 W | 268 5.0 16.2 - 0.0 12.9 0.00 0.00 53.2 109.3 16.2 0.0
7/8/24 - 1700 102.9 20 53.5 WSW | 255 5.1 14.5 - 0.0 12.9 0.00 0.00 53.2 109.3 14.5 0.0
Max 106.8 92 64.3 - 5.1 16.2 104.4 0.0 13.3 0.00 0.00 63.9 109.3 16.2 0.0
Avg 79.4 50 54.8 - 1.4 4.8 93.9 0.0 12.8 0.00 - - - - -
Min 51.6 14 41.3 - 0.0 0.0 81.9 0.0 12.6 0.00 0.00 50.9 58.4 1.0 0.0
Total - - - - - - - - - 0.00 - - - - -